»·PEaware :: N413C KBFI-KHQM

N413C :: KBFI-KHQM

FLIGHT INFORMATION

Flight Status: Arrived
Operator: Privately registered:
United States
More flights under this callsign
Pilot: Alec D. (17934)
Aircraft: CESSNA 182 SKYLANE
(C182)
More flights by this aircraft type
Origin: KBFI Boeing Field/King Co Intl
United States
Destination: KHQM Bowerman
United States
More flights between these airports :: More routes between these airports
Route: +NRVNA1 SEA V27 ULESS
File this flight plan on PilotEdge
Remarks:
Altitude:
(Current/Filed)
6,000ft
Speed:
(Current/Filed)
135kts
Departed: 02-Jul-20 09:47 AM
Arrived: 02-Jul-20 10:31 AM
Distance/Time
Traveled:
74nm/0:43
Distance/Time
To Go:
Arrived

Flight Plot

Page will automatically refresh every two minutes.

Flight plan parsing failed; only flown route is shown


Map Options




Map Legend


Flown Route
Filed Route
Departure Airport
Arrival Airport
Navaid (VOR, NDB)
Fix

Horizontal Profiles

Position Reports

Time Latitude Longitude Heading Altitude Ground
Speed
02-Jul-20 09:25 47.523403 -122.293580 340 21ft 0kts
02-Jul-20 09:26 47.523403 -122.293580 340 21ft 0kts
02-Jul-20 09:27 47.523408 -122.293583 340 21ft 0kts
02-Jul-20 09:28 47.523419 -122.293588 340 21ft 0kts
02-Jul-20 09:29 47.523429 -122.293594 339 21ft 0kts
02-Jul-20 09:30 47.523440 -122.293600 339 21ft 0kts
02-Jul-20 09:31 47.523450 -122.293605 339 21ft 0kts
02-Jul-20 09:32 47.523461 -122.293611 339 21ft 0kts
02-Jul-20 09:33 47.523471 -122.293617 339 21ft 0kts
02-Jul-20 09:34 47.523482 -122.293622 339 21ft 0kts
02-Jul-20 09:35 47.523492 -122.293628 339 21ft 0kts
02-Jul-20 09:36 47.523503 -122.293634 339 21ft 0kts
02-Jul-20 09:37 47.523503 -122.294141 252 21ft 9kts
02-Jul-20 09:38 47.526539 -122.298171 340 21ft 15kts
02-Jul-20 09:39 47.529767 -122.299630 291 21ft 9kts
02-Jul-20 09:40 47.534278 -122.303334 331 21ft 21kts
02-Jul-20 09:41 47.538909 -122.307445 330 21ft 19kts
02-Jul-20 09:42 47.540450 -122.309312 353 21ft 0kts
02-Jul-20 09:43 47.540469 -122.309315 353 21ft 0kts
02-Jul-20 09:44 47.540479 -122.309317 353 21ft 0kts
02-Jul-20 09:45 47.541110 -122.309862 229 21ft 8kts
02-Jul-20 09:46 47.534623 -122.306613 153 170ft 69kts
02-Jul-20 09:47 47.515213 -122.290566 152 1014ft 81kts
02-Jul-20 09:48 47.495204 -122.273715 151 1764ft 83kts
02-Jul-20 09:49 47.475509 -122.255540 153 2524ft 82kts
02-Jul-20 09:50 47.456772 -122.255770 232 3245ft 90kts
02-Jul-20 09:51 47.445607 -122.287743 240 3993ft 91kts
02-Jul-20 09:52 47.434642 -122.321009 241 4696ft 92kts
02-Jul-20 09:53 47.425252 -122.355873 241 5397ft 89kts
02-Jul-20 09:54 47.415769 -122.391926 243 5983ft 101kts
02-Jul-20 09:55 47.403910 -122.436913 243 5955ft 123kts
02-Jul-20 09:56 47.390790 -122.484548 244 5977ft 125kts
02-Jul-20 09:57 47.379692 -122.533855 252 6026ft 128kts
02-Jul-20 09:58 47.366337 -122.583294 244 5973ft 129kts
02-Jul-20 09:59 47.352689 -122.632659 244 5980ft 131kts
02-Jul-20 10:00 47.339452 -122.682883 245 5980ft 131kts
02-Jul-20 10:01 47.326386 -122.733140 245 5979ft 130kts
02-Jul-20 10:03 47.313359 -122.783220 246 5976ft 130kts
02-Jul-20 10:04 47.300365 -122.833052 246 5972ft 130kts
02-Jul-20 10:05 47.287305 -122.883026 246 5971ft 130kts
02-Jul-20 10:06 47.274226 -122.932980 246 5967ft 130kts
02-Jul-20 10:07 47.261084 -122.983089 246 5966ft 130kts
02-Jul-20 10:08 47.248024 -123.032793 246 5963ft 130kts
02-Jul-20 10:09 47.234908 -123.082579 246 5962ft 130kts
02-Jul-20 10:10 47.221790 -123.132265 246 5960ft 129kts
02-Jul-20 10:11 47.208663 -123.181936 245 5970ft 131kts
02-Jul-20 10:12 47.195345 -123.232227 245 5975ft 131kts
02-Jul-20 10:13 47.182020 -123.282330 245 5973ft 131kts
02-Jul-20 10:14 47.168754 -123.332069 245 5975ft 130kts
02-Jul-20 10:15 47.155595 -123.381363 245 5981ft 129kts
02-Jul-20 10:16 47.142444 -123.430481 245 5974ft 126kts
02-Jul-20 10:17 47.126068 -123.473496 204 5989ft 120kts
02-Jul-20 10:18 47.093815 -123.492976 202 5618ft 135kts
02-Jul-20 10:19 47.058249 -123.514358 202 4883ft 140kts
02-Jul-20 10:19 47.030150 -123.531108 202 4219ft 126kts
02-Jul-20 10:21 47.014708 -123.581863 258 3161ft 123kts
02-Jul-20 10:22 47.008774 -123.630615 257 2603ft 119kts
02-Jul-20 10:22 47.003979 -123.669914 258 2325ft 111kts
02-Jul-20 10:23 46.998739 -123.712514 257 2325ft 104kts
02-Jul-20 10:25 46.993643 -123.759219 259 2270ft 87kts
02-Jul-20 10:25 46.989776 -123.787854 256 1960ft 86kts
02-Jul-20 10:26 46.985457 -123.821385 258 1438ft 82kts
02-Jul-20 10:27 46.981208 -123.854500 258 1059ft 84kts
02-Jul-20 10:28 46.977179 -123.887737 258 580ft 82kts
02-Jul-20 10:29 46.973361 -123.919210 258 172ft 60kts
02-Jul-20 10:30 46.971963 -123.934194 343 21ft 3kts
02-Jul-20 10:31 46.972506 -123.932277 81 21ft 10kts
02-Jul-20 10:32 46.973127 -123.929863 257 21ft 0kts
02-Jul-20 10:33 46.973127 -123.929863 257 21ft 0kts

Navigation Log

Ident Type
Flight plan parsing failed, navigation log unavailable